Het weer levert geen direct gevaar op.    Er zijn geen waarschuwingen afgegeven.

Onweer radar Meer informatie blitzortung!


Regen radar Meer informatie rain snow radar



METAR rapporten vliegvelden

   
EHGR - Dalem
Gewijzigd: 14-11-2018 21:25
Bewolking  
Bewolking  
   Wind: ZO 2.1 m/s
Wind: ZO 2.1 m/s
Temperatuur: 6°C
Voelt als: 4°C
Dauwpunt: 5°C
Vochtigheid: 93%
Barometer: 1025 hPa
Bewolking: Bewolking
Zicht: meer dan 10 km
Bewolking: Bewolking 36000 ft
EHGR 142025Z AUTO 13004KT 9999 OVC360 06/05 Q1025 BLU 14006KT CAVOK
EHGR - Roosendaal
Gewijzigd: 14-11-2018 21:25
Bewolking  
Bewolking  
   Wind: ZO 2.1 m/s
Wind: ZO 2.1 m/s
Temperatuur: 6°C
Voelt als: 4°C
Dauwpunt: 5°C
Vochtigheid: 93%
Barometer: 1025 hPa
Bewolking: Bewolking
Zicht: meer dan 10 km
Bewolking: Bewolking 36000 ft
EHGR 142025Z AUTO 13004KT 9999 OVC360 06/05 Q1025 BLU 14006KT CAVOK
EHRD - Rotterdam
Gewijzigd: 14-11-2018 20:55
Gedeeltelijk bewolkt  
Gedeeltelijk bewolkt  
   Wind: ZZO 3.1 m/s
Wind: ZZO 3.1 m/s
Temperatuur: 9°C
Voelt als: 7°C
Dauwpunt: 7°C
Vochtigheid: 87%
Barometer: 1024 hPa
Bewolking: Gedeeltelijk bewolkt
Zicht: meer dan 10 km
Bewolking: Gedeeltelijk bewolkt
EHRD 141955Z AUTO 15006KT 120V180 9999 NSC 09/07 Q1024 NOSIG
EHLW - Urk
Gewijzigd: 14-11-2018 21:25
Nevel, Bewolking  
Nevel, Bewolking  
   Wind: ZZO 3.6 m/s
Wind: ZZO 3.6 m/s
Temperatuur: 8°C
Voelt als: 6°C
Dauwpunt: 7°C
Vochtigheid: 93%
Barometer: 1025 hPa
Bewolking: Bewolking
Zicht: 8 km
Bewolking: Bewolking 29000 ft
EHLW 142025Z AUTO 16007KT 140V200 8000 BR OVC290 08/07 Q1025 BLU
EHDL - Veenendaal
Gewijzigd: 14-11-2018 21:25
Nevel, Bewolking  
Nevel, Bewolking  
   Wind: OZO 2.6 m/s
Wind: OZO 2.6 m/s
Temperatuur: 6°C
Voelt als: 4°C
Dauwpunt: 6°C
Vochtigheid: 100%
Barometer: 1025 hPa
Bewolking: Bewolking
Zicht: 4 km
Bewolking: Bewolking 33000 ft
EHDL 142025Z AUTO 11005KT 080V150 4100 BR OVC330 06/06 Q1025 GRN
EHRD - Vianen
Gewijzigd: 14-11-2018 20:55
Gedeeltelijk bewolkt  
Gedeeltelijk bewolkt  
   Wind: ZZO 3.1 m/s
Wind: ZZO 3.1 m/s
Temperatuur: 9°C
Voelt als: 7°C
Dauwpunt: 7°C
Vochtigheid: 87%
Barometer: 1024 hPa
Bewolking: Gedeeltelijk bewolkt
Zicht: meer dan 10 km
Bewolking: Gedeeltelijk bewolkt
EHRD 141955Z AUTO 15006KT 120V180 9999 NSC 09/07 Q1024 NOSIG

Script ontwikkeld door  Saratoga-weather.org Aangepast voor de template door  Weerstation Leuven

U vindt ons ook hier:

Het Weer Aktueel

UK Metoffice

European Weather Network

WeatherCloud

Weather Underground

AWEKAS

Citizen Weather Observer Program (CWOP)

HAMweather, WeatherForYou, PWS Weather

Apparatuur in gebruik:

Weerstation
Davis VP2 weatherstation

Weerprogramma
Meteobridge

Weercomputer
Asus WL_330N3G

Davis VP2 weatherstation

Meteobridge

Asus WL_330N3G